createdAt,value
2019-03-03T00:01:02.356Z,5.70
2019-03-03T00:03:29.050Z,5.70
2019-03-03T00:05:55.734Z,5.60
2019-03-03T00:08:24.520Z,5.60
2019-03-03T00:10:50.995Z,5.70
2019-03-03T00:13:17.951Z,5.70
2019-03-03T00:15:44.889Z,5.60
2019-03-03T00:18:11.619Z,5.70
2019-03-03T00:20:38.282Z,5.70
2019-03-03T00:23:04.759Z,5.70
2019-03-03T00:25:31.435Z,5.70
2019-03-03T00:27:58.374Z,5.80
2019-03-03T00:30:24.860Z,5.80
2019-03-03T00:32:51.382Z,5.80
2019-03-03T00:35:18.045Z,5.80
2019-03-03T00:37:51.990Z,5.80
2019-03-03T00:40:38.688Z,5.80
2019-03-03T00:43:23.179Z,5.80
2019-03-03T00:45:56.375Z,5.80
2019-03-03T00:48:32.520Z,5.70
2019-03-03T00:51:21.354Z,5.70
2019-03-03T00:54:06.180Z,5.70
2019-03-03T00:56:38.010Z,5.70
2019-03-03T00:59:14.006Z,5.70
2019-03-03T01:01:48.351Z,5.80
2019-03-03T01:04:29.666Z,5.80
2019-03-03T01:07:05.533Z,5.80
2019-03-03T01:10:00.878Z,5.70
2019-03-03T01:12:36.573Z,5.80
2019-03-03T01:15:26.174Z,5.70
2019-03-03T01:17:58.695Z,5.70
2019-03-03T01:20:51.030Z,5.60
2019-03-03T01:23:35.859Z,5.50
2019-03-03T01:26:03.001Z,5.50
2019-03-03T01:28:29.938Z,5.50
2019-03-03T01:30:56.849Z,5.50
2019-03-03T01:33:23.319Z,5.50
2019-03-03T01:35:49.978Z,5.50
2019-03-03T01:38:17.145Z,5.50
2019-03-03T01:40:43.810Z,5.40
2019-03-03T01:43:10.290Z,5.30
2019-03-03T01:45:36.827Z,5.30
2019-03-03T01:48:03.261Z,5.40
2019-03-03T01:50:30.234Z,5.50
2019-03-03T01:52:57.414Z,5.60
2019-03-03T01:55:23.886Z,5.80
2019-03-03T01:57:50.803Z,5.90
2019-03-03T02:00:19.118Z,6.00
2019-03-03T02:02:45.782Z,6.10
2019-03-03T02:05:12.482Z,6.10
2019-03-03T02:07:39.769Z,6.20
2019-03-03T02:10:06.976Z,6.30
2019-03-03T02:12:33.949Z,6.30
2019-03-03T02:15:00.486Z,6.40
2019-03-03T02:17:27.402Z,6.50
2019-03-03T02:19:54.343Z,6.50
2019-03-03T02:22:21.259Z,6.60
2019-03-03T02:24:47.957Z,6.60
2019-03-03T02:27:14.741Z,6.60
2019-03-03T02:29:41.686Z,6.60
2019-03-03T02:32:08.605Z,6.60
2019-03-03T02:34:35.299Z,6.70
2019-03-03T02:37:01.971Z,6.70
2019-03-03T02:39:28.891Z,6.80
2019-03-03T02:41:55.442Z,6.80
2019-03-03T02:44:22.481Z,6.90
2019-03-03T02:46:49.174Z,6.90
2019-03-03T02:49:16.070Z,6.90
2019-03-03T02:51:42.570Z,7.00
2019-03-03T02:54:09.735Z,7.00
2019-03-03T02:56:36.408Z,7.00
2019-03-03T02:59:03.108Z,7.00
2019-03-03T03:01:35.075Z,7.10
2019-03-03T03:04:02.018Z,7.10
2019-03-03T03:06:40.398Z,7.10
2019-03-03T03:09:28.313Z,7.10
2019-03-03T03:12:26.787Z,7.10
2019-03-03T03:15:00.727Z,7.20
2019-03-03T03:17:45.679Z,7.30
2019-03-03T03:20:19.739Z,7.30
2019-03-03T03:23:05.872Z,7.40
2019-03-03T03:25:42.227Z,7.40
2019-03-03T03:28:34.269Z,7.40
2019-03-03T03:31:05.520Z,7.40
2019-03-03T03:33:52.371Z,7.40
2019-03-03T03:36:36.805Z,7.40
2019-03-03T03:39:33.051Z,7.40
2019-03-03T03:42:19.465Z,7.50
2019-03-03T03:44:52.020Z,7.50
2019-03-03T03:47:41.520Z,7.50
2019-03-03T03:50:23.685Z,7.50
2019-03-03T03:53:08.682Z,7.50
2019-03-03T03:55:49.825Z,7.60
2019-03-03T03:58:22.669Z,7.60
2019-03-03T04:01:24.119Z,7.50
2019-03-03T04:03:58.963Z,7.50
2019-03-03T04:06:51.288Z,7.50
2019-03-03T04:09:40.377Z,7.50
2019-03-03T04:12:22.790Z,7.50
2019-03-03T04:15:05.523Z,7.50
2019-03-03T04:17:50.579Z,7.50
2019-03-03T04:20:32.749Z,7.50
2019-03-03T04:23:10.238Z,7.50
2019-03-03T04:25:55.230Z,7.50
2019-03-03T04:28:47.767Z,7.50
2019-03-03T04:31:32.827Z,7.50
2019-03-03T04:34:08.947Z,7.40
2019-03-03T04:36:42.314Z,7.40
2019-03-03T04:39:17.510Z,7.40
2019-03-03T04:41:50.270Z,7.40
2019-03-03T04:44:22.479Z,7.50
2019-03-03T04:47:07.674Z,7.40
2019-03-03T04:49:51.911Z,7.50
2019-03-03T04:52:30.550Z,7.50
2019-03-03T04:55:15.666Z,7.50
2019-03-03T04:58:01.306Z,7.50
2019-03-03T05:00:53.706Z,7.50
2019-03-03T05:03:34.532Z,7.50
2019-03-03T05:06:17.910Z,7.50
2019-03-03T05:08:54.974Z,7.40
2019-03-03T05:12:04.549Z,7.40
2019-03-03T05:14:35.771Z,7.40
2019-03-03T05:17:08.824Z,7.40
2019-03-03T05:19:41.350Z,7.30
2019-03-03T05:22:08.491Z,7.30
2019-03-03T05:24:35.192Z,7.40
2019-03-03T05:27:02.098Z,7.40
2019-03-03T05:29:28.814Z,7.30
2019-03-03T05:31:55.258Z,7.30
2019-03-03T05:34:21.724Z,7.30
2019-03-03T05:36:48.158Z,7.30
2019-03-03T05:39:15.107Z,7.30
2019-03-03T05:41:41.781Z,7.40
2019-03-03T05:44:08.493Z,7.40
2019-03-03T05:46:35.401Z,7.40
2019-03-03T05:49:02.355Z,7.30
2019-03-03T05:51:29.034Z,7.30
2019-03-03T05:53:55.500Z,7.30
2019-03-03T05:56:22.391Z,7.30
2019-03-03T05:58:48.889Z,7.30
2019-03-03T06:01:16.057Z,7.20
2019-03-03T06:03:42.855Z,7.30
2019-03-03T06:06:09.763Z,7.20
2019-03-03T06:08:36.459Z,7.20
2019-03-03T06:11:03.003Z,7.30
2019-03-03T06:13:29.717Z,7.30
2019-03-03T06:15:56.402Z,7.30
2019-03-03T06:18:23.077Z,7.30
2019-03-03T06:20:49.807Z,7.30
2019-03-03T06:23:16.493Z,7.30
2019-03-03T06:25:43.681Z,7.40
2019-03-03T06:28:10.130Z,7.40
2019-03-03T06:30:36.794Z,7.40
2019-03-03T06:33:03.247Z,7.40
2019-03-03T06:35:29.944Z,7.50
2019-03-03T06:37:56.870Z,7.50
2019-03-03T06:40:23.557Z,7.50
2019-03-03T06:42:50.227Z,7.50
2019-03-03T06:45:16.891Z,7.50
2019-03-03T06:47:43.575Z,7.50
2019-03-03T06:50:10.374Z,7.50
2019-03-03T06:52:37.623Z,7.60
2019-03-03T06:55:04.070Z,7.60
2019-03-03T06:57:30.746Z,7.70
2019-03-03T06:59:57.647Z,7.60
2019-03-03T07:02:24.338Z,7.60
2019-03-03T07:04:51.109Z,7.60
2019-03-03T07:07:18.030Z,7.70
2019-03-03T07:09:44.718Z,7.70
2019-03-03T07:12:11.490Z,7.70
2019-03-03T07:14:38.191Z,7.70
2019-03-03T07:17:04.887Z,7.70
2019-03-03T07:19:31.574Z,7.70
2019-03-03T07:21:58.451Z,7.80
2019-03-03T07:24:25.124Z,7.80
2019-03-03T07:26:51.567Z,7.80
2019-03-03T07:29:18.002Z,7.80
2019-03-03T07:31:44.689Z,7.90
2019-03-03T07:34:11.369Z,7.90
2019-03-03T07:36:38.527Z,7.90
2019-03-03T07:39:13.102Z,7.90
2019-03-03T07:41:39.558Z,8.00
2019-03-03T07:44:06.243Z,8.00
2019-03-03T07:46:32.935Z,8.10
2019-03-03T07:48:59.854Z,8.10
2019-03-03T07:51:26.534Z,8.20
2019-03-03T07:53:53.232Z,8.20
2019-03-03T07:56:19.898Z,8.30
2019-03-03T07:58:46.590Z,8.40
2019-03-03T08:01:13.254Z,8.40
2019-03-03T08:03:40.398Z,8.40
2019-03-03T08:06:06.845Z,8.40
2019-03-03T08:08:33.301Z,8.40
2019-03-03T08:11:00.058Z,8.40
2019-03-03T08:13:27.003Z,8.40
2019-03-03T08:15:53.703Z,8.40
2019-03-03T08:18:20.964Z,8.40
2019-03-03T08:20:48.079Z,8.40
2019-03-03T08:23:14.759Z,8.40
2019-03-03T08:25:41.191Z,8.40
2019-03-03T08:28:08.113Z,8.40
2019-03-03T08:30:34.770Z,8.50
2019-03-03T08:33:01.214Z,8.50
2019-03-03T08:35:27.655Z,8.60
2019-03-03T08:37:54.346Z,8.60
2019-03-03T08:40:21.019Z,8.60
2019-03-03T08:43:05.955Z,8.60
2019-03-03T08:45:44.537Z,8.70
2019-03-03T08:48:18.210Z,8.70
2019-03-03T08:50:52.698Z,8.70
2019-03-03T08:53:26.399Z,8.80
2019-03-03T08:56:14.142Z,8.80
2019-03-03T08:59:06.099Z,8.80
2019-03-03T09:01:44.383Z,8.80
2019-03-03T09:04:30.419Z,8.80
2019-03-03T09:07:28.971Z,8.90
2019-03-03T09:10:13.733Z,8.90
2019-03-03T09:12:47.354Z,9.00
2019-03-03T09:15:23.499Z,8.90
2019-03-03T09:18:02.785Z,9.00
2019-03-03T09:20:56.478Z,9.00
2019-03-03T09:23:45.295Z,9.00
2019-03-03T09:26:30.006Z,9.10
2019-03-03T09:29:11.246Z,9.10
2019-03-03T09:31:50.681Z,9.10
2019-03-03T09:34:41.838Z,9.20
2019-03-03T09:37:20.990Z,9.20
2019-03-03T09:40:09.361Z,9.30
2019-03-03T09:42:40.770Z,9.30
2019-03-03T09:45:20.507Z,9.40
2019-03-03T09:47:58.388Z,9.40
2019-03-03T09:50:43.394Z,9.40
2019-03-03T09:53:30.005Z,9.50
2019-03-03T09:56:11.814Z,9.50
2019-03-03T09:59:07.545Z,9.60
2019-03-03T10:01:56.674Z,9.60
2019-03-03T10:04:58.410Z,9.60
2019-03-03T10:07:35.709Z,9.60
2019-03-03T10:10:23.074Z,9.50
2019-03-03T10:13:27.321Z,9.50
2019-03-03T10:16:14.220Z,9.50
2019-03-03T10:18:48.796Z,9.50
2019-03-03T10:21:41.652Z,9.50
2019-03-03T10:24:31.105Z,9.50
2019-03-03T10:27:10.204Z,9.50
2019-03-03T10:30:05.595Z,9.50
2019-03-03T10:32:56.405Z,9.40
2019-03-03T10:35:37.768Z,9.40
2019-03-03T10:38:35.743Z,9.40
2019-03-03T10:41:24.437Z,9.40
2019-03-03T10:44:23.139Z,9.40
2019-03-03T10:47:08.629Z,9.40
2019-03-03T10:50:01.407Z,9.40
2019-03-03T10:52:52.960Z,9.40
2019-03-03T10:55:34.242Z,9.40
2019-03-03T10:58:29.248Z,9.40
2019-03-03T11:01:00.930Z,9.40
2019-03-03T11:03:42.305Z,9.40
2019-03-03T11:06:34.936Z,9.40
2019-03-03T11:09:17.963Z,9.40
2019-03-03T11:12:20.148Z,9.40
2019-03-03T11:15:03.866Z,9.40
2019-03-03T11:17:52.486Z,9.40
2019-03-03T11:20:40.444Z,9.50
2019-03-03T11:23:26.013Z,9.50
2019-03-03T11:26:24.457Z,9.50
2019-03-03T11:29:11.395Z,9.50
2019-03-03T11:32:13.571Z,9.50
2019-03-03T11:34:49.404Z,9.60
2019-03-03T11:37:50.731Z,9.60
2019-03-03T11:40:35.707Z,9.60
2019-03-03T11:43:07.802Z,9.60
2019-03-03T11:45:48.987Z,9.60
2019-03-03T11:48:27.396Z,9.60
2019-03-03T11:51:01.426Z,9.50
2019-03-03T11:53:46.798Z,9.50
2019-03-03T11:56:23.402Z,9.40
2019-03-03T11:59:05.728Z,9.40
2019-03-03T12:01:50.742Z,9.30
2019-03-03T12:04:35.519Z,9.30
2019-03-03T12:07:16.550Z,9.20
2019-03-03T12:09:49.882Z,9.20
2019-03-03T12:12:42.488Z,9.20
2019-03-03T12:15:20.832Z,9.30
2019-03-03T12:17:54.543Z,9.30
2019-03-03T12:20:34.476Z,9.30
2019-03-03T12:23:10.414Z,9.40
2019-03-03T12:25:57.747Z,9.50
2019-03-03T12:28:44.488Z,9.50
2019-03-03T12:31:27.376Z,9.50
2019-03-03T12:34:05.584Z,9.60
2019-03-03T12:37:04.438Z,9.60
2019-03-03T12:39:50.372Z,9.60
2019-03-03T12:42:49.178Z,9.60
2019-03-03T12:45:25.666Z,9.60
2019-03-03T12:48:12.428Z,9.70
2019-03-03T12:51:08.320Z,9.70
2019-03-03T12:53:57.864Z,9.70
2019-03-03T12:56:41.078Z,9.70
2019-03-03T12:59:32.084Z,9.70
2019-03-03T13:02:27.777Z,9.80
2019-03-03T13:05:29.891Z,9.80
2019-03-03T13:08:16.743Z,9.80
2019-03-03T13:11:01.301Z,9.70
2019-03-03T13:13:42.014Z,9.70
2019-03-03T13:16:38.390Z,9.70
2019-03-03T13:19:23.970Z,9.60
2019-03-03T13:22:23.060Z,9.60
2019-03-03T13:25:13.420Z,9.60
2019-03-03T13:27:58.564Z,9.60
2019-03-03T13:30:54.387Z,9.60
2019-03-03T13:33:41.053Z,9.60
2019-03-03T13:36:21.385Z,9.60
2019-03-03T13:39:04.762Z,9.50
2019-03-03T13:41:41.083Z,9.40
2019-03-03T13:44:09.054Z,9.40
2019-03-03T13:46:35.640Z,9.40
2019-03-03T13:49:02.390Z,9.40
2019-03-03T13:51:29.292Z,9.40
2019-03-03T13:53:56.007Z,9.40
2019-03-03T13:56:22.922Z,9.40
2019-03-03T13:58:49.637Z,9.40
2019-03-03T14:01:16.306Z,9.40
2019-03-03T14:03:43.009Z,9.30
2019-03-03T14:06:09.681Z,9.30
2019-03-03T14:08:36.590Z,9.30
2019-03-03T14:11:03.767Z,9.40
2019-03-03T14:13:30.201Z,9.40
2019-03-03T14:15:56.899Z,9.40
2019-03-03T14:18:23.567Z,9.40
2019-03-03T14:20:50.294Z,9.30
2019-03-03T14:23:16.987Z,9.30
2019-03-03T14:25:43.960Z,9.20
2019-03-03T14:28:10.946Z,9.20
2019-03-03T14:30:38.012Z,9.10
2019-03-03T14:33:04.539Z,9.10
2019-03-03T14:35:31.255Z,9.00
2019-03-03T14:37:58.260Z,8.90
2019-03-03T14:40:25.014Z,8.90
2019-03-03T14:42:51.686Z,8.80
2019-03-03T14:45:18.398Z,8.80
2019-03-03T14:47:45.113Z,8.70
2019-03-03T14:50:11.874Z,8.70
2019-03-03T14:52:38.342Z,8.60
2019-03-03T14:55:05.695Z,8.50
2019-03-03T14:57:32.357Z,8.50
2019-03-03T14:59:59.035Z,8.50
2019-03-03T15:02:25.714Z,8.50
2019-03-03T15:04:52.191Z,8.50
2019-03-03T15:07:18.626Z,8.50
2019-03-03T15:09:45.094Z,8.60
2019-03-03T15:12:11.534Z,8.60
2019-03-03T15:14:37.999Z,8.70
2019-03-03T15:17:04.682Z,8.70
2019-03-03T15:19:31.799Z,8.70
2019-03-03T15:21:58.747Z,8.70
2019-03-03T15:24:25.446Z,8.70
2019-03-03T15:26:52.235Z,8.70
2019-03-03T15:29:18.676Z,8.80
2019-03-03T15:31:45.770Z,8.80
2019-03-03T15:34:12.455Z,8.80
2019-03-03T15:36:39.382Z,8.80
2019-03-03T15:39:06.058Z,8.90
2019-03-03T15:41:32.780Z,8.80
2019-03-03T15:43:59.466Z,8.90
2019-03-03T15:46:26.256Z,8.90
2019-03-03T15:48:53.050Z,8.90
2019-03-03T15:51:19.741Z,8.90
2019-03-03T15:53:46.410Z,8.90
2019-03-03T15:56:13.335Z,8.90
2019-03-03T15:58:40.143Z,8.90
2019-03-03T16:01:10.903Z,8.90
2019-03-03T16:03:37.538Z,8.90
2019-03-03T16:06:04.254Z,8.90
2019-03-03T16:08:30.698Z,8.90
2019-03-03T16:10:57.162Z,8.90
2019-03-03T16:13:24.303Z,8.90
2019-03-03T16:15:50.770Z,8.80
2019-03-03T16:18:17.434Z,8.80
2019-03-03T16:20:44.234Z,8.80
2019-03-03T16:23:11.458Z,8.80
2019-03-03T16:25:38.482Z,8.80
2019-03-03T16:28:04.950Z,8.80
2019-03-03T16:30:31.391Z,8.80
2019-03-03T16:32:58.083Z,8.80
2019-03-03T16:35:24.518Z,8.80
2019-03-03T16:37:51.731Z,8.80
2019-03-03T16:40:18.862Z,8.80
2019-03-03T16:42:45.801Z,8.80
2019-03-03T16:45:12.501Z,8.70
2019-03-03T16:47:39.195Z,8.80
2019-03-03T16:50:06.419Z,8.80
2019-03-03T16:52:34.219Z,8.70
2019-03-03T16:55:00.658Z,8.80
2019-03-03T16:57:27.378Z,8.80
2019-03-03T16:59:53.814Z,8.80
2019-03-03T17:02:20.506Z,8.80
2019-03-03T17:04:47.045Z,8.80
2019-03-03T17:07:13.758Z,8.80
2019-03-03T17:09:40.654Z,8.80
2019-03-03T17:12:07.122Z,8.80
2019-03-03T17:14:34.138Z,8.90
2019-03-03T17:17:00.954Z,8.90
2019-03-03T17:19:27.418Z,8.90
2019-03-03T17:21:54.365Z,8.90
2019-03-03T17:24:21.502Z,9.00
2019-03-03T17:26:48.674Z,9.00
2019-03-03T17:29:15.337Z,9.10
2019-03-03T17:31:41.806Z,9.10
2019-03-03T17:34:13.113Z,9.00
2019-03-03T17:36:38.826Z,9.00
2019-03-03T17:39:05.522Z,9.00
2019-03-03T17:41:32.215Z,9.00
2019-03-03T17:43:59.002Z,9.00
2019-03-03T17:46:25.467Z,8.90
2019-03-03T17:48:52.642Z,8.90
2019-03-03T17:51:19.326Z,8.90
2019-03-03T17:53:45.798Z,8.80
2019-03-03T17:56:12.462Z,8.80
2019-03-03T17:58:39.403Z,8.80
2019-03-03T18:01:06.166Z,8.80
2019-03-03T18:03:32.634Z,8.80
2019-03-03T18:05:59.542Z,8.70
2019-03-03T18:08:26.012Z,8.70
2019-03-03T18:10:52.946Z,8.70
2019-03-03T18:13:19.879Z,8.70
2019-03-03T18:15:46.541Z,8.80
2019-03-03T18:18:13.012Z,8.80
2019-03-03T18:20:39.682Z,8.80
2019-03-03T18:23:06.151Z,8.90
2019-03-03T18:25:32.810Z,8.90
2019-03-03T18:27:59.590Z,8.90
2019-03-03T18:30:26.062Z,8.90
2019-03-03T18:32:53.242Z,8.90
2019-03-03T18:35:19.851Z,8.80
2019-03-03T18:37:46.574Z,8.80
2019-03-03T18:40:14.069Z,8.80
2019-03-03T18:42:40.570Z,8.80
2019-03-03T18:45:08.659Z,8.90
2019-03-03T18:47:35.407Z,8.90
2019-03-03T18:50:01.951Z,8.90
2019-03-03T18:52:29.043Z,8.90
2019-03-03T18:54:56.210Z,8.90
2019-03-03T18:57:22.874Z,9.00
2019-03-03T18:59:49.611Z,9.00
2019-03-03T19:02:16.598Z,9.00
2019-03-03T19:04:43.309Z,9.00
2019-03-03T19:07:09.842Z,9.00
2019-03-03T19:09:37.052Z,9.00
2019-03-03T19:12:03.484Z,9.00
2019-03-03T19:14:30.564Z,9.00
2019-03-03T19:16:57.434Z,9.00
2019-03-03T19:19:24.411Z,9.00
2019-03-03T19:21:51.198Z,9.00
2019-03-03T19:24:18.105Z,9.00
2019-03-03T19:26:44.777Z,9.00
2019-03-03T19:29:11.227Z,9.10
2019-03-03T19:31:37.923Z,9.10
2019-03-03T19:34:04.615Z,9.10
2019-03-03T19:36:31.057Z,9.10
2019-03-03T19:38:57.506Z,9.10
2019-03-03T19:41:24.650Z,9.20
2019-03-03T19:43:51.337Z,9.20
2019-03-03T19:46:17.882Z,9.20
2019-03-03T19:48:44.558Z,9.20
2019-03-03T19:51:11.010Z,9.20
2019-03-03T19:53:37.703Z,9.20
2019-03-03T19:56:04.151Z,9.20
2019-03-03T19:58:30.831Z,9.10
2019-03-03T20:00:57.518Z,9.10
2019-03-03T20:03:23.969Z,9.10
2019-03-03T20:05:50.907Z,9.20
2019-03-03T20:08:17.678Z,9.10
2019-03-03T20:10:44.369Z,9.10
2019-03-03T20:13:11.287Z,9.10
2019-03-03T20:15:37.970Z,9.10
2019-03-03T20:18:05.126Z,9.10
2019-03-03T20:20:31.810Z,9.10
2019-03-03T20:22:58.494Z,9.10
2019-03-03T20:25:24.932Z,9.10
2019-03-03T20:27:51.610Z,9.10
2019-03-03T20:30:18.435Z,9.10
2019-03-03T20:32:44.910Z,9.10
2019-03-03T20:35:11.601Z,9.10
2019-03-03T20:37:38.274Z,9.10
2019-03-03T20:40:05.930Z,9.10
2019-03-03T20:42:32.401Z,9.10
2019-03-03T20:44:59.102Z,9.10
2019-03-03T20:47:26.007Z,9.00
2019-03-03T20:49:52.466Z,8.90
2019-03-03T20:52:18.913Z,8.90
2019-03-03T20:54:45.590Z,8.90
2019-03-03T20:57:12.252Z,8.90
2019-03-03T20:59:38.947Z,8.90
2019-03-03T21:02:05.622Z,8.90
2019-03-03T21:04:32.537Z,8.90
2019-03-03T21:06:59.206Z,8.90
2019-03-03T21:09:25.894Z,8.90
2019-03-03T21:11:52.571Z,8.90
2019-03-03T21:14:19.267Z,8.90
2019-03-03T21:16:46.407Z,8.90
2019-03-03T21:19:13.087Z,8.90
2019-03-03T21:21:40.326Z,8.90
2019-03-03T21:24:06.998Z,9.00
2019-03-03T21:26:33.962Z,8.90
2019-03-03T21:29:00.882Z,8.90
2019-03-03T21:31:27.538Z,8.90
2019-03-03T21:33:53.982Z,8.90
2019-03-03T21:36:20.646Z,8.90
2019-03-03T21:38:47.528Z,8.90
2019-03-03T21:41:13.975Z,8.90
2019-03-03T21:43:41.286Z,8.90
2019-03-03T21:46:08.190Z,8.90
2019-03-03T21:48:34.644Z,8.80
2019-03-03T21:51:01.318Z,8.90
2019-03-03T21:53:27.778Z,8.80
2019-03-03T21:55:54.223Z,8.80
2019-03-03T21:58:21.150Z,8.80
2019-03-03T22:00:47.890Z,8.80
2019-03-03T22:03:14.798Z,8.80
2019-03-03T22:05:41.731Z,8.70
2019-03-03T22:08:08.646Z,8.70
2019-03-03T22:10:35.566Z,8.70
2019-03-03T22:13:06.351Z,8.70
2019-03-03T22:15:33.363Z,8.70
2019-03-03T22:18:00.027Z,8.70
2019-03-03T22:20:26.730Z,8.80
2019-03-03T22:22:53.627Z,8.80
2019-03-03T22:25:20.382Z,8.90
2019-03-03T22:27:47.055Z,8.90
2019-03-03T22:30:13.498Z,8.80
2019-03-03T22:32:40.398Z,8.80
2019-03-03T22:35:08.341Z,8.80
2019-03-03T22:37:34.782Z,8.80
2019-03-03T22:40:01.829Z,8.80
2019-03-03T22:42:29.119Z,8.80
2019-03-03T22:44:56.110Z,8.80
2019-03-03T22:47:22.774Z,8.80
2019-03-03T22:49:49.466Z,8.80
2019-03-03T22:52:16.179Z,8.80
2019-03-03T22:54:42.634Z,8.80
2019-03-03T22:57:09.299Z,8.70
2019-03-03T22:59:35.974Z,8.70
2019-03-03T23:02:02.658Z,8.60
2019-03-03T23:04:37.193Z,8.60
2019-03-03T23:07:09.674Z,8.60
2019-03-03T23:09:56.102Z,8.60
2019-03-03T23:12:41.383Z,8.60
2019-03-03T23:15:20.599Z,8.60
2019-03-03T23:18:07.659Z,8.50
2019-03-03T23:20:52.153Z,8.50
2019-03-03T23:23:26.441Z,8.30
2019-03-03T23:25:53.011Z,8.30
2019-03-03T23:28:19.958Z,8.30
2019-03-03T23:30:47.116Z,8.30
2019-03-03T23:33:14.022Z,8.40
2019-03-03T23:35:40.719Z,8.40
2019-03-03T23:38:07.626Z,8.40
2019-03-03T23:40:34.311Z,8.40
2019-03-03T23:43:00.747Z,8.50
2019-03-03T23:45:27.437Z,8.50
2019-03-03T23:47:53.875Z,8.60
2019-03-03T23:50:21.021Z,8.60
2019-03-03T23:52:47.694Z,8.70
2019-03-03T23:55:14.377Z,8.60
2019-03-03T23:57:41.050Z,8.70
